createdAt,value
2023-02-19T00:00:00.308Z,2.00
2023-02-19T00:00:32.164Z,2.00
2023-02-19T00:01:15.846Z,2.00
2023-02-19T00:01:48.087Z,2.00
2023-02-19T00:02:21.248Z,2.00
2023-02-19T00:02:53.043Z,2.00
2023-02-19T00:03:25.088Z,2.00
2023-02-19T00:04:02.360Z,2.00
2023-02-19T00:04:34.170Z,2.00
2023-02-19T00:05:06.309Z,2.00
2023-02-19T00:05:38.156Z,2.00
2023-02-19T00:06:11.563Z,2.00
2023-02-19T00:06:45.017Z,2.00
2023-02-19T00:07:18.094Z,2.00
2023-02-19T00:07:50.486Z,2.00
2023-02-19T00:08:22.339Z,2.00
2023-02-19T00:08:54.595Z,2.00
2023-02-19T00:09:26.458Z,2.00
2023-02-19T00:09:58.260Z,2.00
2023-02-19T00:10:30.240Z,2.00
2023-02-19T00:11:07.937Z,2.00
2023-02-19T00:11:40.669Z,2.00
2023-02-19T00:12:12.574Z,2.00
2023-02-19T00:12:44.852Z,2.00
2023-02-19T00:13:16.741Z,2.00
2023-02-19T00:13:51.271Z,2.00
2023-02-19T00:14:23.234Z,2.00
2023-02-19T00:14:57.180Z,2.00
2023-02-19T00:15:30.624Z,2.00
2023-02-19T00:16:10.685Z,2.00
2023-02-19T00:16:42.654Z,2.00
2023-02-19T00:17:14.473Z,2.00
2023-02-19T00:17:46.254Z,2.00
2023-02-19T00:18:18.273Z,2.00
2023-02-19T00:18:51.201Z,2.00
2023-02-19T00:19:23.281Z,2.00
2023-02-19T00:19:55.075Z,2.00
2023-02-19T00:20:26.993Z,2.00
2023-02-19T00:20:58.802Z,2.00
2023-02-19T00:21:31.129Z,2.00
2023-02-19T00:22:02.927Z,2.00
2023-02-19T00:22:34.671Z,2.00
2023-02-19T00:23:06.547Z,2.00
2023-02-19T00:23:38.390Z,2.00
2023-02-19T00:24:12.600Z,2.00
2023-02-19T00:24:44.477Z,2.00
2023-02-19T00:25:16.322Z,2.00
2023-02-19T00:25:48.118Z,2.00
2023-02-19T00:26:20.153Z,2.00
2023-02-19T00:26:51.996Z,2.00
2023-02-19T00:27:23.770Z,2.00
2023-02-19T00:27:55.643Z,2.00
2023-02-19T00:28:27.535Z,2.00
2023-02-19T00:29:01.045Z,2.00
2023-02-19T00:29:32.933Z,2.00
2023-02-19T00:30:04.965Z,2.00
2023-02-19T00:30:36.868Z,2.00
2023-02-19T00:31:13.450Z,2.00
2023-02-19T00:31:47.353Z,2.00
2023-02-19T00:32:19.258Z,2.00
2023-02-19T00:32:54.442Z,2.00
2023-02-19T00:33:26.362Z,2.00
2023-02-19T00:34:00.892Z,2.00
2023-02-19T00:34:32.746Z,2.00
2023-02-19T00:35:04.657Z,2.00
2023-02-19T00:35:36.573Z,2.00
2023-02-19T00:36:09.862Z,2.00
2023-02-19T00:36:43.227Z,2.00
2023-02-19T00:37:15.021Z,2.00
2023-02-19T00:37:46.873Z,2.00
2023-02-19T00:38:18.641Z,2.00
2023-02-19T00:38:51.144Z,2.00
2023-02-19T00:39:23.095Z,2.00
2023-02-19T00:39:54.875Z,2.00
2023-02-19T00:40:26.761Z,2.00
2023-02-19T00:41:02.345Z,2.00
2023-02-19T00:41:35.024Z,2.00
2023-02-19T00:42:06.831Z,2.00
2023-02-19T00:42:38.635Z,2.00
2023-02-19T00:43:10.360Z,2.00
2023-02-19T00:43:42.096Z,2.00
2023-02-19T00:44:15.299Z,2.00
2023-02-19T00:44:47.136Z,2.00
2023-02-19T00:45:19.512Z,2.00
2023-02-19T00:45:51.265Z,2.00
2023-02-19T00:46:39.544Z,2.00
2023-02-19T00:47:11.368Z,2.00
2023-02-19T00:47:43.197Z,2.00
2023-02-19T00:48:14.980Z,2.00
2023-02-19T00:48:47.458Z,2.00
2023-02-19T00:49:21.960Z,2.00
2023-02-19T00:49:53.721Z,2.00
2023-02-19T00:50:25.524Z,2.00
2023-02-19T00:50:57.294Z,2.00
2023-02-19T00:51:32.928Z,2.00
2023-02-19T00:52:04.888Z,2.00
2023-02-19T00:52:37.453Z,2.00
2023-02-19T00:53:09.305Z,2.00
2023-02-19T00:53:41.903Z,2.00
2023-02-19T00:54:14.516Z,2.00
2023-02-19T00:54:46.361Z,2.00
2023-02-19T00:55:18.288Z,2.00
2023-02-19T00:55:50.037Z,2.00
2023-02-19T00:56:22.132Z,2.00
2023-02-19T00:56:53.985Z,2.00
2023-02-19T00:57:25.818Z,2.00
2023-02-19T00:57:57.700Z,2.00
2023-02-19T00:58:29.465Z,2.00
2023-02-19T00:59:01.239Z,2.00
2023-02-19T00:59:33.055Z,2.00
2023-02-19T01:00:06.802Z,2.00
2023-02-19T01:00:39.200Z,2.00
2023-02-19T01:01:11.968Z,2.00
2023-02-19T01:01:45.099Z,2.67
2023-02-19T01:02:16.933Z,3.00
2023-02-19T01:02:48.778Z,3.00
2023-02-19T01:03:22.703Z,3.00
2023-02-19T01:03:54.547Z,3.00
2023-02-19T01:04:26.398Z,3.00
2023-02-19T01:04:58.265Z,3.00
2023-02-19T01:05:30.045Z,3.00
2023-02-19T01:06:02.174Z,3.00
2023-02-19T01:06:34.849Z,3.00
2023-02-19T01:07:07.930Z,3.00
2023-02-19T01:07:40.854Z,3.00
2023-02-19T01:08:12.623Z,3.00
2023-02-19T01:08:44.647Z,3.00
2023-02-19T01:09:17.480Z,3.00
2023-02-19T01:09:49.694Z,3.00
2023-02-19T01:10:21.513Z,3.00
2023-02-19T01:10:53.393Z,3.00
2023-02-19T01:11:25.663Z,3.00
2023-02-19T01:11:57.440Z,3.00
2023-02-19T01:12:29.392Z,3.00
2023-02-19T01:13:01.257Z,3.00
2023-02-19T01:13:34.176Z,3.00
2023-02-19T01:14:06.020Z,3.00
2023-02-19T01:14:37.872Z,3.00
2023-02-19T01:15:09.829Z,3.00
2023-02-19T01:15:41.665Z,3.00
2023-02-19T01:16:18.957Z,3.00
2023-02-19T01:16:50.881Z,3.00
2023-02-19T01:17:22.972Z,3.00
2023-02-19T01:17:54.828Z,3.00
2023-02-19T01:18:27.161Z,3.00
2023-02-19T01:18:59.664Z,3.00
2023-02-19T01:19:31.480Z,3.00
2023-02-19T01:20:04.035Z,3.00
2023-02-19T01:20:39.193Z,3.00
2023-02-19T01:21:30.817Z,3.00
2023-02-19T01:22:02.573Z,3.00
2023-02-19T01:22:34.402Z,3.00
2023-02-19T01:23:06.381Z,3.00
2023-02-19T01:23:38.339Z,3.00
2023-02-19T01:24:10.252Z,3.00
2023-02-19T01:24:42.132Z,3.00
2023-02-19T01:25:13.950Z,3.00
2023-02-19T01:25:45.791Z,3.00
2023-02-19T01:26:30.456Z,3.00
2023-02-19T01:27:02.218Z,2.00
2023-02-19T01:27:34.046Z,2.00
2023-02-19T01:28:06.395Z,2.00
2023-02-19T01:28:38.178Z,2.00
2023-02-19T01:29:10.068Z,2.00
2023-02-19T01:29:45.607Z,2.00
2023-02-19T01:30:17.865Z,2.00
2023-02-19T01:30:49.653Z,2.00
2023-02-19T01:31:24.121Z,2.67
2023-02-19T01:31:56.322Z,3.00
2023-02-19T01:32:28.292Z,3.00
2023-02-19T01:33:00.027Z,3.00
2023-02-19T01:33:31.968Z,3.00
2023-02-19T01:34:04.700Z,3.00
2023-02-19T01:34:36.523Z,3.00
2023-02-19T01:35:08.869Z,3.00
2023-02-19T01:35:40.952Z,3.00
2023-02-19T01:36:14.437Z,3.00
2023-02-19T01:36:46.248Z,3.00
2023-02-19T01:37:18.205Z,3.00
2023-02-19T01:37:50.058Z,3.00
2023-02-19T01:38:21.928Z,3.00
2023-02-19T01:38:54.140Z,3.00
2023-02-19T01:39:25.867Z,3.00
2023-02-19T01:39:57.780Z,3.00
2023-02-19T01:40:29.790Z,3.00
2023-02-19T01:41:04.154Z,3.00
2023-02-19T01:41:39.584Z,3.00
2023-02-19T01:42:15.206Z,3.00
2023-02-19T01:42:47.091Z,3.00
2023-02-19T01:43:18.851Z,3.00
2023-02-19T01:43:59.316Z,3.00
2023-02-19T01:44:30.993Z,3.00
2023-02-19T01:45:23.276Z,3.00
2023-02-19T01:45:55.648Z,3.00
2023-02-19T01:46:36.664Z,3.00
2023-02-19T01:47:08.589Z,3.00
2023-02-19T01:47:40.670Z,3.00
2023-02-19T01:48:45.382Z,3.00
2023-02-19T01:49:48.975Z,3.00
2023-02-19T01:50:21.149Z,3.00
2023-02-19T01:50:58.733Z,3.00
2023-02-19T01:51:34.854Z,3.00
2023-02-19T01:52:13.782Z,3.00
2023-02-19T01:52:45.942Z,3.00
2023-02-19T01:53:24.087Z,3.00
2023-02-19T01:54:00.928Z,3.00
2023-02-19T01:54:40.875Z,3.00
2023-02-19T01:55:14.197Z,3.00
2023-02-19T01:55:50.212Z,3.00
2023-02-19T01:56:25.779Z,3.00
2023-02-19T01:56:59.936Z,3.00
2023-02-19T01:57:38.561Z,3.00
2023-02-19T01:58:10.951Z,3.00
2023-02-19T01:58:43.833Z,3.00
2023-02-19T01:59:17.288Z,3.00
2023-02-19T01:59:55.384Z,3.00
2023-02-19T02:00:27.676Z,3.00
2023-02-19T02:01:03.126Z,3.00
2023-02-19T02:01:38.784Z,3.00
2023-02-19T02:02:10.993Z,3.00
2023-02-19T02:02:48.372Z,3.00
2023-02-19T02:03:21.140Z,3.00
2023-02-19T02:03:53.520Z,3.00
2023-02-19T02:04:26.677Z,3.00
2023-02-19T02:05:00.813Z,3.00
2023-02-19T02:06:16.888Z,3.00
2023-02-19T02:06:53.354Z,3.00
2023-02-19T02:07:43.943Z,3.00
2023-02-19T02:08:36.560Z,3.00
2023-02-19T02:09:27.527Z,3.00
2023-02-19T02:10:18.202Z,3.00
2023-02-19T02:10:52.232Z,3.00
2023-02-19T02:11:24.661Z,3.00
2023-02-19T02:11:56.568Z,3.00
2023-02-19T02:12:28.372Z,3.00
2023-02-19T02:13:00.267Z,3.00
2023-02-19T02:13:35.601Z,3.00
2023-02-19T02:14:07.971Z,3.00
2023-02-19T02:14:44.434Z,3.00
2023-02-19T02:15:17.637Z,3.00
2023-02-19T02:16:20.110Z,3.00
2023-02-19T02:16:55.661Z,3.00
2023-02-19T02:17:44.838Z,3.00
2023-02-19T02:20:07.411Z,3.00
2023-02-19T02:20:51.724Z,3.00
2023-02-19T02:21:56.595Z,3.00
2023-02-19T02:22:37.928Z,3.00
2023-02-19T02:23:41.791Z,3.00
2023-02-19T02:24:31.796Z,3.00
2023-02-19T02:25:06.352Z,3.00
2023-02-19T02:25:38.064Z,3.00
2023-02-19T02:26:33.088Z,3.00
2023-02-19T02:27:23.133Z,3.00
2023-02-19T02:28:53.879Z,3.00
2023-02-19T02:29:56.168Z,3.00
2023-02-19T02:30:54.990Z,3.00
2023-02-19T02:31:35.287Z,3.00
2023-02-19T02:32:13.829Z,3.00
2023-02-19T02:33:25.950Z,3.00
2023-02-19T02:36:09.363Z,3.00
2023-02-19T02:36:46.912Z,3.00
2023-02-19T03:08:29.992Z,3.00
2023-02-19T03:09:30.380Z,3.00
2023-02-19T03:10:08.163Z,3.00
2023-02-19T03:11:30.270Z,3.00
2023-02-19T03:12:24.294Z,3.00
2023-02-19T03:13:18.941Z,3.00
2023-02-19T03:14:23.139Z,3.00
2023-02-19T03:15:21.572Z,3.00
2023-02-19T03:16:18.808Z,3.00
2023-02-19T03:17:10.877Z,3.00
2023-02-19T03:18:09.300Z,3.00
2023-02-19T03:19:05.034Z,3.00
2023-02-19T03:19:44.146Z,3.00
2023-02-19T03:20:21.368Z,3.00
2023-02-19T03:21:28.805Z,3.00
2023-02-19T03:22:10.913Z,3.00
2023-02-19T03:22:46.141Z,3.00
2023-02-19T03:23:20.788Z,3.00
2023-02-19T03:24:12.527Z,3.00
2023-02-19T03:25:11.107Z,3.00
2023-02-19T03:26:01.750Z,3.00
2023-02-19T03:26:35.381Z,3.00
2023-02-19T03:27:27.240Z,3.00
2023-02-19T03:28:03.072Z,3.00
2023-02-19T03:28:59.637Z,3.00
2023-02-19T03:29:37.727Z,3.00
2023-02-19T03:30:21.209Z,3.00
2023-02-19T03:30:55.864Z,3.00
2023-02-19T03:31:32.178Z,3.00
2023-02-19T03:32:13.041Z,3.00
2023-02-19T03:32:54.883Z,3.00
2023-02-19T03:33:29.989Z,3.00
2023-02-19T03:34:08.770Z,3.00
2023-02-19T03:34:48.424Z,3.00
2023-02-19T03:35:27.576Z,3.00
2023-02-19T03:36:06.579Z,3.00
2023-02-19T03:36:44.801Z,3.00
2023-02-19T03:37:28.600Z,3.00
2023-02-19T03:38:22.121Z,3.00
2023-02-19T03:39:02.589Z,3.00
2023-02-19T03:39:44.384Z,3.00
2023-02-19T03:40:17.016Z,3.00
2023-02-19T03:41:10.909Z,3.00
2023-02-19T03:42:10.582Z,3.00
2023-02-19T03:43:12.088Z,3.00
2023-02-19T03:43:52.644Z,3.00
2023-02-19T03:44:45.688Z,3.00
2023-02-19T03:45:38.930Z,3.00
2023-02-19T03:46:42.541Z,3.00
2023-02-19T03:47:19.409Z,3.00
2023-02-19T03:48:12.523Z,3.00
2023-02-19T03:49:10.664Z,3.00
2023-02-19T03:49:45.489Z,3.00
2023-02-19T03:50:34.971Z,3.00
2023-02-19T03:51:15.259Z,3.00
2023-02-19T03:52:28.879Z,3.00
2023-02-19T03:53:52.958Z,3.00
2023-02-19T03:55:02.760Z,3.00
2023-02-19T03:55:34.442Z,3.00
2023-02-19T03:56:39.633Z,3.00
2023-02-19T03:57:45.271Z,3.00
2023-02-19T03:58:20.343Z,3.00
2023-02-19T03:59:09.175Z,3.00
2023-02-19T04:00:23.613Z,3.00
2023-02-19T04:01:13.768Z,3.00
2023-02-19T04:02:46.902Z,3.00
2023-02-19T04:04:01.693Z,3.00
2023-02-19T04:04:39.866Z,3.00
2023-02-19T04:05:17.736Z,3.00
2023-02-19T04:05:57.505Z,3.00
2023-02-19T04:06:33.190Z,3.00
2023-02-19T04:07:05.649Z,3.00
2023-02-19T04:07:45.385Z,3.00
2023-02-19T04:08:22.402Z,3.00
2023-02-19T04:08:59.488Z,3.00
2023-02-19T04:09:38.193Z,3.00
2023-02-19T04:10:10.404Z,3.00
2023-02-19T04:10:44.357Z,3.00
2023-02-19T04:11:18.824Z,3.00
2023-02-19T04:11:53.262Z,3.00
2023-02-19T04:12:25.680Z,3.00
2023-02-19T04:13:07.045Z,3.00
2023-02-19T04:14:05.490Z,3.00
2023-02-19T04:15:21.224Z,3.00
2023-02-19T04:15:58.413Z,3.00
2023-02-19T04:17:08.938Z,3.00
2023-02-19T04:17:57.530Z,3.00
2023-02-19T04:18:36.435Z,3.00
2023-02-19T04:19:13.582Z,3.00
2023-02-19T04:19:50.290Z,3.00
2023-02-19T04:20:27.674Z,3.00
2023-02-19T04:21:01.511Z,3.00
2023-02-19T04:22:12.522Z,3.00
2023-02-19T04:22:44.926Z,3.00
2023-02-19T04:23:24.184Z,3.00
2023-02-19T04:24:00.990Z,3.00
2023-02-19T04:24:41.454Z,3.00
2023-02-19T04:25:13.323Z,3.00
2023-02-19T04:25:49.962Z,3.00
2023-02-19T04:26:23.453Z,3.00
2023-02-19T04:26:56.492Z,3.00
2023-02-19T04:27:28.740Z,3.00
2023-02-19T04:28:00.741Z,3.00
2023-02-19T04:28:33.169Z,3.00
2023-02-19T04:29:05.002Z,3.00
2023-02-19T04:29:39.170Z,3.00
2023-02-19T04:30:14.732Z,3.00
2023-02-19T04:30:47.163Z,3.00
2023-02-19T04:31:19.159Z,3.00
2023-02-19T04:31:51.126Z,3.00
2023-02-19T04:32:23.038Z,3.00
2023-02-19T04:32:54.926Z,3.00
2023-02-19T04:33:26.749Z,3.00
2023-02-19T04:33:58.586Z,3.00
2023-02-19T04:34:30.397Z,3.00
2023-02-19T04:35:02.170Z,3.00
2023-02-19T04:35:33.935Z,3.00
2023-02-19T04:36:07.353Z,3.00
2023-02-19T04:36:39.323Z,3.00
2023-02-19T04:37:11.539Z,3.00
2023-02-19T04:37:43.530Z,3.00
2023-02-19T04:38:15.494Z,3.00
2023-02-19T04:38:47.269Z,3.00
2023-02-19T04:39:19.262Z,3.00
2023-02-19T04:39:51.060Z,3.00
2023-02-19T04:40:22.871Z,3.00
2023-02-19T04:40:54.748Z,3.00
2023-02-19T04:41:26.878Z,3.00
2023-02-19T04:41:58.913Z,3.00
2023-02-19T04:42:30.844Z,3.00
2023-02-19T04:43:02.700Z,3.00
2023-02-19T04:43:34.476Z,3.00
2023-02-19T04:44:06.348Z,3.00
2023-02-19T04:45:10.505Z,3.00
2023-02-19T04:45:42.354Z,3.00
2023-02-19T04:46:14.255Z,3.00
2023-02-19T04:46:46.730Z,3.00
2023-02-19T04:47:18.533Z,3.00
2023-02-19T04:47:50.386Z,3.00
2023-02-19T04:48:22.297Z,3.00
2023-02-19T04:48:54.091Z,3.00
2023-02-19T04:49:25.865Z,3.00
2023-02-19T04:49:57.670Z,3.00
2023-02-19T04:50:29.567Z,3.00
2023-02-19T04:51:06.606Z,3.00
2023-02-19T04:51:40.187Z,3.00
2023-02-19T04:52:12.867Z,3.00
2023-02-19T04:52:44.696Z,3.00
2023-02-19T04:53:16.568Z,3.00
2023-02-19T04:53:48.398Z,3.00
2023-02-19T04:54:20.299Z,3.00
2023-02-19T04:54:52.669Z,3.00
2023-02-19T04:55:24.554Z,3.00
2023-02-19T04:55:56.366Z,3.00
2023-02-19T04:56:29.798Z,3.00
2023-02-19T04:57:01.747Z,3.00
2023-02-19T04:57:33.632Z,3.00
2023-02-19T04:58:05.831Z,3.00
2023-02-19T04:58:38.486Z,3.00
2023-02-19T04:59:10.326Z,3.00
2023-02-19T04:59:42.178Z,3.00
2023-02-19T05:00:14.175Z,3.00
2023-02-19T05:00:45.997Z,3.00
2023-02-19T05:01:18.059Z,3.00
2023-02-19T05:01:49.896Z,3.00
2023-02-19T05:02:21.744Z,3.00
2023-02-19T05:02:55.826Z,3.00
2023-02-19T05:03:27.662Z,3.00
2023-02-19T05:03:59.419Z,3.00
2023-02-19T05:04:31.324Z,3.00
2023-02-19T05:05:03.882Z,3.00
2023-02-19T05:05:35.947Z,3.00
2023-02-19T05:06:11.642Z,3.00
2023-02-19T05:06:43.473Z,3.00
2023-02-19T05:07:17.428Z,3.00
2023-02-19T05:08:14.383Z,3.00
2023-02-19T05:08:46.214Z,3.00
2023-02-19T05:09:18.266Z,3.00
2023-02-19T05:09:50.186Z,3.00
2023-02-19T05:10:22.432Z,3.00
2023-02-19T05:10:59.182Z,3.00
2023-02-19T05:11:31.007Z,3.00
2023-02-19T05:12:02.830Z,3.00
2023-02-19T05:12:34.858Z,3.00
2023-02-19T05:13:07.248Z,3.00
2023-02-19T05:14:12.904Z,3.00
2023-02-19T05:14:45.110Z,3.00
2023-02-19T05:15:20.787Z,3.00
2023-02-19T05:15:57.569Z,3.00
2023-02-19T05:16:29.643Z,3.00
2023-02-19T05:17:01.423Z,3.00
2023-02-19T05:17:34.659Z,3.00
2023-02-19T05:18:06.460Z,3.00
2023-02-19T05:18:38.281Z,3.00
2023-02-19T05:19:12.957Z,3.00
2023-02-19T05:19:45.052Z,3.00
2023-02-19T05:20:17.074Z,3.00
2023-02-19T05:21:21.772Z,3.00
2023-02-19T05:26:22.939Z,1.00
2023-02-19T05:26:54.788Z,4.33
2023-02-19T05:27:26.810Z,11.00
2023-02-19T05:28:17.142Z,20.67
2023-02-19T05:28:52.335Z,33.00
2023-02-19T05:29:24.118Z,37.00
2023-02-19T05:29:55.990Z,38.00
2023-02-19T05:30:27.826Z,38.33
2023-02-19T05:31:06.743Z,37.33
2023-02-19T05:31:38.669Z,35.00
2023-02-19T05:32:43.385Z,31.33
2023-02-19T05:33:20.551Z,29.67
2023-02-19T05:33:53.070Z,28.67
2023-02-19T05:34:26.334Z,27.67
2023-02-19T05:34:58.153Z,27.00
2023-02-19T05:35:29.999Z,26.33
2023-02-19T05:36:10.471Z,25.67
2023-02-19T05:36:42.290Z,24.33
2023-02-19T05:37:14.164Z,22.67
2023-02-19T05:37:45.940Z,21.33
2023-02-19T05:39:09.590Z,16.33
2023-02-19T05:40:39.350Z,12.67
2023-02-19T05:41:20.185Z,10.33
2023-02-19T05:41:52.101Z,9.00
2023-02-19T05:42:42.445Z,8.00
2023-02-19T05:43:14.804Z,7.00
2023-02-19T05:43:47.866Z,6.67
2023-02-19T05:44:19.841Z,6.00
2023-02-19T05:44:55.018Z,6.00
2023-02-19T05:45:27.030Z,5.00
2023-02-19T05:45:59.479Z,5.00
2023-02-19T05:47:03.656Z,4.00
2023-02-19T05:47:36.966Z,4.00
2023-02-19T05:48:12.955Z,4.00
2023-02-19T05:48:44.856Z,4.00
2023-02-19T05:49:17.118Z,4.00
2023-02-19T05:49:49.117Z,3.00
2023-02-19T05:50:20.946Z,3.00
2023-02-19T05:51:27.514Z,3.00
2023-02-19T05:52:03.483Z,3.00
2023-02-19T05:52:35.395Z,3.00
2023-02-19T05:53:07.202Z,3.00
2023-02-19T05:53:39.151Z,3.00
2023-02-19T05:54:11.052Z,3.00
2023-02-19T05:54:42.884Z,2.33
2023-02-19T05:55:15.925Z,2.00
2023-02-19T05:55:47.694Z,2.00
2023-02-19T05:56:40.626Z,2.00
2023-02-19T05:57:48.984Z,2.00
2023-02-19T05:58:20.813Z,2.00
2023-02-19T05:58:54.019Z,2.00
2023-02-19T05:59:26.986Z,2.00
2023-02-19T06:00:33.374Z,2.00
2023-02-19T06:01:05.306Z,2.00
2023-02-19T06:01:37.277Z,2.00
2023-02-19T06:02:41.882Z,2.00
2023-02-19T06:03:13.697Z,2.00
2023-02-19T06:03:45.599Z,2.00
2023-02-19T06:04:20.111Z,2.00
2023-02-19T06:04:52.092Z,2.00
2023-02-19T06:05:24.348Z,1.00
2023-02-19T06:05:56.136Z,1.00
2023-02-19T06:06:28.254Z,1.00
2023-02-19T06:07:00.050Z,1.00
2023-02-19T06:07:33.149Z,1.00
2023-02-19T06:08:05.166Z,1.00
2023-02-19T06:08:40.427Z,1.00
2023-02-19T06:09:15.339Z,1.00
2023-02-19T06:09:51.868Z,1.00
2023-02-19T06:10:28.365Z,1.00
2023-02-19T06:11:03.224Z,1.00
2023-02-19T06:11:35.360Z,1.00
2023-02-19T06:12:08.408Z,1.00
2023-02-19T06:12:40.337Z,1.00
2023-02-19T06:13:12.136Z,1.00
2023-02-19T06:14:17.051Z,1.00
2023-02-19T06:14:49.517Z,1.00
2023-02-19T06:15:22.155Z,1.00
2023-02-19T06:15:54.136Z,1.00
2023-02-19T06:16:26.072Z,1.00
2023-02-19T06:16:57.996Z,1.00
2023-02-19T06:17:29.842Z,1.00
2023-02-19T06:18:02.092Z,1.00
2023-02-19T06:18:34.109Z,1.00
2023-02-19T06:19:06.033Z,1.00
2023-02-19T06:19:37.880Z,1.00
2023-02-19T06:20:10.036Z,1.00
2023-02-19T06:20:43.410Z,1.00
2023-02-19T06:21:16.802Z,1.00
2023-02-19T06:21:51.169Z,1.00
2023-02-19T06:22:55.932Z,1.00
2023-02-19T06:23:30.308Z,1.00
2023-02-19T06:24:09.567Z,1.00
2023-02-19T06:24:41.402Z,1.00
2023-02-19T06:25:13.326Z,1.00
2023-02-19T06:25:45.132Z,1.00
2023-02-19T06:26:18.292Z,1.00
2023-02-19T06:26:50.057Z,1.00
2023-02-19T06:27:23.329Z,1.00
2023-02-19T06:27:55.261Z,1.00
2023-02-19T06:28:27.074Z,1.00
2023-02-19T06:28:58.908Z,1.00
2023-02-19T06:29:32.624Z,1.00
2023-02-19T06:30:04.683Z,1.00
2023-02-19T06:30:37.290Z,1.00
2023-02-19T06:31:11.552Z,1.00
2023-02-19T06:32:02.157Z,1.00
2023-02-19T06:32:34.003Z,1.00
2023-02-19T06:33:05.876Z,1.00
2023-02-19T06:33:40.634Z,1.00
2023-02-19T06:34:12.465Z,1.00
2023-02-19T06:34:44.279Z,1.00
2023-02-19T06:35:16.188Z,1.00
2023-02-19T06:35:48.031Z,1.00
2023-02-19T06:36:21.709Z,1.00
2023-02-19T06:36:53.818Z,1.00
2023-02-19T06:38:03.469Z,1.00
2023-02-19T06:38:35.315Z,1.00
2023-02-19T06:39:07.431Z,1.00
2023-02-19T06:39:39.272Z,1.00
2023-02-19T06:40:11.148Z,1.00
2023-02-19T06:41:15.607Z,1.00
2023-02-19T06:41:47.566Z,1.00
2023-02-19T06:42:52.371Z,1.00
2023-02-19T06:43:24.179Z,1.00
2023-02-19T06:43:58.283Z,1.00
2023-02-19T06:44:30.184Z,1.00
2023-02-19T06:45:01.957Z,1.00
2023-02-19T06:45:33.722Z,1.00
2023-02-19T06:46:07.017Z,1.00
2023-02-19T06:46:38.970Z,1.00
2023-02-19T06:47:10.826Z,1.00
2023-02-19T06:47:42.789Z,1.00
2023-02-19T06:48:14.615Z,1.00
2023-02-19T06:48:46.573Z,1.00
2023-02-19T06:49:18.367Z,1.00
2023-02-19T06:49:50.250Z,1.00
2023-02-19T06:50:22.263Z,1.00
2023-02-19T06:50:54.309Z,1.00
2023-02-19T06:51:28.998Z,1.00
2023-02-19T06:52:02.062Z,1.00
2023-02-19T06:52:33.983Z,1.00
2023-02-19T06:53:05.875Z,1.00
2023-02-19T06:53:37.712Z,1.00
2023-02-19T06:54:09.617Z,1.00
2023-02-19T06:54:41.853Z,1.00
2023-02-19T06:56:02.528Z,1.00
2023-02-19T06:56:39.609Z,1.00
2023-02-19T06:57:44.281Z,1.00
2023-02-19T06:58:16.051Z,1.00
2023-02-19T06:58:48.254Z,1.00
2023-02-19T06:59:20.117Z,1.00
2023-02-19T06:59:52.013Z,1.00
2023-02-19T07:00:57.197Z,1.00
2023-02-19T07:01:34.365Z,1.00
2023-02-19T07:02:06.202Z,1.00
2023-02-19T07:02:38.009Z,1.00
2023-02-19T07:03:09.963Z,1.00
2023-02-19T07:03:41.863Z,1.00
2023-02-19T07:04:13.769Z,1.00
2023-02-19T07:04:45.630Z,1.00
2023-02-19T07:05:52.064Z,1.00
2023-02-19T07:06:27.073Z,1.00
2023-02-19T07:07:00.370Z,1.00
2023-02-19T07:07:35.846Z,1.00
2023-02-19T07:08:08.710Z,1.00
2023-02-19T07:08:40.680Z,1.00
2023-02-19T07:09:50.512Z,1.00
2023-02-19T07:10:22.262Z,1.00
2023-02-19T07:11:35.172Z,1.00
2023-02-19T07:12:09.879Z,1.00
2023-02-19T07:12:45.277Z,1.00
2023-02-19T07:13:17.068Z,1.00
2023-02-19T07:13:48.937Z,1.00
2023-02-19T07:14:21.673Z,1.00
2023-02-19T07:14:53.417Z,1.00
2023-02-19T07:15:25.187Z,1.00
2023-02-19T07:16:08.137Z,1.00
2023-02-19T07:17:12.431Z,1.00
2023-02-19T07:17:44.354Z,1.00
2023-02-19T07:18:47.778Z,1.00
2023-02-19T07:19:21.516Z,1.00
2023-02-19T07:19:53.418Z,1.00
2023-02-19T07:20:25.200Z,1.00
2023-02-19T07:21:32.870Z,1.00
2023-02-19T07:22:05.356Z,1.00
2023-02-19T07:22:37.293Z,1.00
2023-02-19T07:23:09.266Z,1.00
2023-02-19T07:23:42.707Z,1.00
2023-02-19T07:24:14.605Z,1.00
2023-02-19T07:24:47.942Z,1.00
2023-02-19T07:25:52.249Z,1.00
2023-02-19T07:26:24.824Z,1.00
2023-02-19T07:26:56.924Z,1.00
2023-02-19T07:27:32.421Z,1.00
2023-02-19T07:28:06.396Z,1.00
2023-02-19T07:28:38.624Z,1.00
2023-02-19T07:29:10.572Z,1.00
2023-02-19T07:29:42.401Z,1.00
2023-02-19T07:30:46.568Z,1.00
2023-02-19T07:31:21.170Z,1.00
2023-02-19T07:31:53.108Z,1.00
2023-02-19T07:32:26.486Z,1.00
2023-02-19T07:32:58.350Z,1.00
2023-02-19T07:33:30.672Z,1.00
2023-02-19T07:34:02.500Z,1.00
2023-02-19T07:34:34.393Z,1.00
2023-02-19T07:35:06.607Z,1.00
2023-02-19T07:35:38.962Z,1.00
2023-02-19T07:36:11.552Z,1.00
2023-02-19T07:36:44.402Z,1.00
2023-02-19T07:37:16.485Z,1.00
2023-02-19T07:37:48.305Z,1.00
2023-02-19T07:38:21.824Z,1.00
2023-02-19T07:38:57.698Z,1.00
2023-02-19T07:39:29.761Z,1.00
2023-02-19T07:40:01.801Z,1.00
2023-02-19T07:40:34.688Z,1.00
2023-02-19T07:41:39.902Z,1.00
2023-02-19T07:42:11.852Z,1.00
2023-02-19T07:42:43.653Z,1.00
2023-02-19T07:43:15.518Z,1.00
2023-02-19T07:43:47.417Z,1.00
2023-02-19T07:44:19.365Z,1.00
2023-02-19T07:44:51.269Z,1.00
2023-02-19T07:45:23.192Z,1.00
2023-02-19T07:45:55.553Z,1.00
2023-02-19T07:46:27.481Z,1.00
2023-02-19T07:46:59.542Z,1.00
2023-02-19T07:47:31.494Z,1.00
2023-02-19T07:48:03.401Z,1.00
2023-02-19T07:48:36.707Z,1.00
2023-02-19T07:49:08.510Z,1.00
2023-02-19T07:49:40.409Z,1.00
2023-02-19T07:50:13.977Z,1.00
2023-02-19T07:50:57.387Z,1.00
2023-02-19T07:51:29.158Z,1.00
2023-02-19T07:52:01.097Z,1.00
2023-02-19T07:52:34.132Z,1.00
2023-02-19T07:53:06.356Z,1.00
2023-02-19T07:53:38.150Z,1.00
2023-02-19T07:54:09.974Z,1.00
2023-02-19T07:54:41.826Z,1.00
2023-02-19T07:55:13.759Z,1.00
2023-02-19T07:55:45.685Z,1.00
2023-02-19T07:56:18.827Z,1.00
2023-02-19T07:56:50.648Z,1.00
2023-02-19T07:57:22.443Z,1.00
2023-02-19T07:57:54.249Z,1.00
2023-02-19T07:58:26.044Z,1.00
2023-02-19T07:58:57.874Z,1.00
2023-02-19T07:59:29.624Z,1.00
2023-02-19T08:00:01.691Z,1.00
2023-02-19T08:00:33.614Z,1.00
2023-02-19T08:01:19.562Z,1.00
2023-02-19T08:02:09.787Z,1.00
2023-02-19T08:03:00.378Z,1.00
2023-02-19T08:03:32.635Z,1.00
2023-02-19T08:04:04.573Z,1.00
2023-02-19T08:04:36.411Z,1.00
2023-02-19T08:05:08.326Z,1.00
2023-02-19T08:05:42.668Z,1.00
2023-02-19T08:06:14.450Z,1.00
2023-02-19T08:06:46.256Z,1.00
2023-02-19T08:07:18.103Z,1.00
2023-02-19T08:07:49.898Z,1.00
2023-02-19T08:08:21.732Z,1.00
2023-02-19T08:08:55.148Z,1.00
2023-02-19T08:09:28.098Z,1.00
2023-02-19T08:10:20.259Z,1.00
2023-02-19T08:11:10.796Z,1.00
2023-02-19T08:12:01.081Z,1.00
2023-02-19T08:12:51.571Z,1.00
2023-02-19T08:13:25.460Z,1.00
2023-02-19T08:13:57.225Z,1.00
2023-02-19T08:14:29.519Z,1.00
2023-02-19T08:15:01.274Z,1.00
2023-02-19T08:15:33.317Z,1.00
2023-02-19T08:16:17.054Z,1.00
2023-02-19T08:16:53.296Z,1.00
2023-02-19T08:17:25.242Z,1.00
2023-02-19T08:17:57.057Z,1.00
2023-02-19T08:18:31.579Z,1.00
2023-02-19T08:19:03.506Z,1.00
2023-02-19T08:19:35.390Z,1.00
2023-02-19T08:20:08.545Z,1.00
2023-02-19T08:20:40.927Z,1.00
2023-02-19T08:21:13.987Z,1.00
2023-02-19T08:21:45.752Z,1.00
2023-02-19T08:22:17.558Z,1.00
2023-02-19T08:22:49.296Z,1.00
2023-02-19T08:23:21.685Z,1.00
2023-02-19T08:23:53.504Z,1.00
2023-02-19T08:24:25.330Z,1.00
2023-02-19T08:24:57.113Z,1.00
2023-02-19T08:25:29.557Z,1.00
2023-02-19T08:26:02.838Z,1.00
2023-02-19T08:26:35.108Z,1.00
2023-02-19T08:27:07.496Z,1.00
2023-02-19T08:27:39.268Z,1.00
2023-02-19T08:28:12.255Z,1.00
2023-02-19T08:28:44.274Z,1.00
2023-02-19T08:29:16.102Z,1.00
2023-02-19T08:29:47.904Z,1.00
2023-02-19T08:30:19.744Z,1.00
2023-02-19T08:30:51.799Z,1.00
2023-02-19T08:31:23.816Z,1.00
2023-02-19T08:31:55.773Z,1.00
2023-02-19T08:32:27.608Z,1.00
2023-02-19T08:33:02.217Z,1.00
2023-02-19T08:33:35.377Z,1.00
2023-02-19T08:34:07.172Z,1.00
2023-02-19T08:34:38.908Z,1.00
2023-02-19T08:35:10.719Z,1.00
2023-02-19T08:35:43.280Z,1.00
2023-02-19T08:36:15.192Z,1.00
2023-02-19T08:36:47.037Z,1.00
2023-02-19T08:37:18.841Z,1.00
2023-02-19T08:38:24.055Z,1.00
2023-02-19T08:38:56.040Z,1.00
2023-02-19T08:39:27.860Z,1.00
2023-02-19T08:39:59.679Z,1.00
2023-02-19T08:40:33.169Z,1.00
2023-02-19T08:41:14.239Z,1.00
2023-02-19T08:41:46.226Z,1.00
2023-02-19T08:42:18.044Z,1.00
2023-02-19T08:42:49.931Z,1.00
2023-02-19T08:44:18.741Z,1.00
2023-02-19T08:44:51.680Z,1.00
2023-02-19T08:45:24.440Z,1.00
2023-02-19T08:45:56.643Z,1.00
2023-02-19T08:46:28.418Z,1.00
2023-02-19T08:47:00.268Z,1.00
2023-02-19T08:47:34.664Z,1.00
2023-02-19T08:48:07.321Z,1.00
2023-02-19T08:48:40.232Z,1.00
2023-02-19T08:49:12.027Z,1.00
2023-02-19T08:49:43.814Z,1.00
2023-02-19T08:50:15.617Z,1.00